Time;durP1;ratioP1;P1;durP2;ratioP2;P2;SDS_P1;SDS_P2;PMS_P1;PMS_P2;Temp;Humidity;BMP_temperature;BMP_pressure;BME280_temperature;BME280_humidity;BME280_pressure;Samples;Min_cycle;Max_cycle;Signal;HPM_P1;HPM_P2
2022/11/21 00:01:31;;;;;;;2.47;1.60;;;7.80;99.90;;;;;;4943613;28;20230;-67
2022/11/21 00:03:56;;;;;;;3.13;1.80;;;7.80;99.90;;;;;;4948435;28;20439;-68
2022/11/21 00:06:22;;;;;;;2.70;1.67;;;7.80;99.90;;;;;;4940714;28;20218;-68
2022/11/21 00:08:48;;;;;;;2.30;1.83;;;7.80;99.90;;;;;;4948989;28;20187;-68
2022/11/21 00:11:14;;;;;;;3.90;1.60;;;7.70;99.90;;;;;;4948601;28;20711;-67
2022/11/21 00:13:40;;;;;;;3.77;2.00;;;7.80;99.90;;;;;;4946749;28;20187;-67
2022/11/21 00:16:11;;;;;;;2.50;1.83;;;7.80;99.90;;;;;;4948417;28;20427;-67
2022/11/21 00:18:37;;;;;;;4.47;2.00;;;7.90;99.90;;;;;;4948684;28;20442;-67
2022/11/21 00:21:09;;;;;;;4.37;2.37;;;7.90;99.90;;;;;;4946998;28;20512;-66
2022/11/21 00:23:34;;;;;;;2.97;1.77;;;7.90;99.90;;;;;;4946553;28;20451;-66
2022/11/21 00:26:04;;;;;;;2.90;1.80;;;8.00;99.90;;;;;;4944962;28;20482;-66
2022/11/21 00:28:29;;;;;;;2.90;1.60;;;8.00;99.90;;;;;;4942407;28;20233;-67
2022/11/21 00:30:55;;;;;;;3.90;1.70;;;8.10;99.90;;;;;;4944668;28;20846;-67
2022/11/21 00:33:20;;;;;;;4.00;1.93;;;8.00;99.90;;;;;;4945465;28;20664;-67
2022/11/21 00:35:46;;;;;;;4.47;2.27;;;8.10;99.90;;;;;;4951095;28;20241;-68
2022/11/21 00:38:11;;;;;;;3.23;1.90;;;8.10;99.90;;;;;;4952572;28;20253;-67
2022/11/21 00:40:37;;;;;;;8.50;2.10;;;8.00;99.90;;;;;;4951447;28;20219;-67
2022/11/21 00:43:02;;;;;;;3.63;2.57;;;8.10;99.90;;;;;;4950115;28;20188;-68
2022/11/21 00:45:28;;;;;;;3.10;1.70;;;8.20;99.90;;;;;;4942200;28;20215;-68
2022/11/21 00:47:53;;;;;;;3.30;2.33;;;8.30;99.90;;;;;;4947801;28;20262;-66
2022/11/21 00:50:19;;;;;;;5.87;2.17;;;8.30;99.90;;;;;;4942390;28;20585;-68
2022/11/21 00:52:44;;;;;;;3.50;2.13;;;8.30;99.90;;;;;;4943013;28;20695;-67
2022/11/21 00:55:10;;;;;;;6.03;2.00;;;8.20;99.90;;;;;;4940724;28;20709;-68
2022/11/21 00:57:35;;;;;;;6.30;1.77;;;8.10;99.90;;;;;;5008440;28;20188;-67
2022/11/21 01:00:01;;;;;;;4.20;2.20;;;8.10;99.90;;;;;;4942710;28;20285;-67
2022/11/21 01:02:27;;;;;;;3.47;1.87;;;8.00;99.90;;;;;;4946667;28;20215;-68
2022/11/21 01:04:52;;;;;;;2.47;1.50;;;8.10;99.90;;;;;;4941183;28;20206;-68
2022/11/21 01:07:18;;;;;;;4.70;2.33;;;8.10;99.90;;;;;;4952376;28;20666;-68
2022/11/21 01:09:43;;;;;;;4.37;1.90;;;8.10;99.90;;;;;;4942179;28;20187;-68
2022/11/21 01:12:09;;;;;;;5.50;1.70;;;8.00;99.90;;;;;;4952850;28;20218;-68
2022/11/21 01:14:35;;;;;;;4.30;1.93;;;8.00;99.90;;;;;;4945506;28;20195;-67
2022/11/21 01:17:00;;;;;;;2.80;1.97;;;8.00;99.90;;;;;;4950361;28;20282;-67
2022/11/21 01:19:26;;;;;;;5.60;2.30;;;8.00;99.90;;;;;;4942219;28;20191;-67
2022/11/21 01:21:51;;;;;;;5.50;1.90;;;7.90;99.90;;;;;;4952937;28;20693;-68
2022/11/21 01:24:17;;;;;;;4.37;1.90;;;8.00;99.90;;;;;;4940579;28;20211;-67
2022/11/21 01:26:42;;;;;;;2.73;1.60;;;8.10;99.90;;;;;;4945079;28;20652;-68
2022/11/21 01:29:08;;;;;;;5.00;1.87;;;8.10;99.90;;;;;;4944732;28;20676;-67
2022/11/21 01:31:34;;;;;;;4.93;1.80;;;8.10;99.90;;;;;;4949158;28;20211;-68
2022/11/21 01:34:00;;;;;;;2.33;1.67;;;8.10;99.90;;;;;;4953452;28;20191;-69
2022/11/21 01:36:31;;;;;;;3.97;2.47;;;8.00;99.90;;;;;;4951778;28;20439;-67
2022/11/21 01:38:59;;;;;;;3.93;1.83;;;7.90;99.90;;;;;;4948172;28;20466;-68
2022/11/21 01:41:36;;;;;;;8.90;2.20;;;8.00;99.90;;;;;;4946142;28;20560;-68
2022/11/21 01:44:15;;;;;;;3.53;2.00;;;8.10;99.90;;;;;;4945970;28;20453;-70
2022/11/21 01:46:40;;;;;;;5.40;2.30;;;8.10;99.90;;;;;;4951350;28;20478;-69
2022/11/21 01:49:28;;;;;;;2.93;2.07;;;8.20;99.90;;;;;;4942309;28;20451;-67
2022/11/21 01:52:24;;;;;;;3.17;1.97;;;8.20;99.90;;;;;;4941157;28;20336;-68
2022/11/21 01:55:05;;;;;;;2.90;1.63;;;8.10;99.90;;;;;;4946042;28;20426;-67
2022/11/21 01:57:39;;;;;;;2.20;1.63;;;8.10;99.90;;;;;;4943869;28;20422;-67
2022/11/21 02:00:12;;;;;;;4.10;2.17;;;8.10;99.90;;;;;;4946436;28;20526;-68
2022/11/21 02:02:44;;;;;;;4.10;1.80;;;8.00;99.90;;;;;;4943305;28;20442;-67
2022/11/21 02:05:15;;;;;;;3.00;1.50;;;8.10;99.90;;;;;;4946037;28;20599;-67
2022/11/21 02:07:44;;;;;;;2.73;1.70;;;8.10;99.90;;;;;;4959373;28;20813;-67
2022/11/21 02:10:09;;;;;;;10.80;2.07;;;8.10;99.90;;;;;;4946253;28;20814;-69
2022/11/21 02:12:52;;;;;;;3.10;1.53;;;8.10;99.90;;;;;;4944280;28;20442;-67
2022/11/21 02:15:21;;;;;;;2.60;1.50;;;8.10;99.90;;;;;;4944109;28;21021;-68
2022/11/21 02:17:47;;;;;;;2.03;1.50;;;8.00;99.90;;;;;;4943545;28;20429;-67
2022/11/21 02:20:18;;;;;;;2.67;1.50;;;8.10;99.90;;;;;;4947928;28;20435;-67
2022/11/21 02:23:12;;;;;;;3.67;1.37;;;8.00;99.90;;;;;;4956150;28;20276;-67
2022/11/21 02:25:40;;;;;;;2.90;1.50;;;8.00;99.90;;;;;;4960326;28;20470;-68
2022/11/21 02:28:08;;;;;;;2.83;1.30;;;7.90;99.90;;;;;;4949205;28;20427;-68
2022/11/21 02:30:37;;;;;;;1.93;1.23;;;8.00;99.90;;;;;;4951005;28;20513;-68
2022/11/21 02:33:03;;;;;;;2.50;1.30;;;8.00;99.90;;;;;;5009350;28;20446;-67
2022/11/21 02:35:29;;;;;;;5.30;2.10;;;8.00;99.90;;;;;;5010728;28;20578;-67
2022/11/21 02:38:26;;;;;;;3.77;1.47;;;8.10;99.90;;;;;;4950092;28;20430;-70
2022/11/21 02:41:10;;;;;;;3.80;1.60;;;8.10;99.90;;;;;;4944895;28;20272;-67
2022/11/21 02:43:51;;;;;;;2.63;1.50;;;8.10;99.90;;;;;;4947143;28;20435;-67
2022/11/21 02:46:17;;;;;;;3.10;1.67;;;8.10;99.90;;;;;;4945402;28;20995;-66
2022/11/21 02:48:42;;;;;;;3.33;1.80;;;8.10;99.90;;;;;;5008202;28;20478;-67
2022/11/21 02:51:08;;;;;;;2.80;1.40;;;8.10;99.90;;;;;;4943588;28;20699;-67
2022/11/21 02:53:33;;;;;;;4.83;1.90;;;8.20;99.90;;;;;;4950036;28;20212;-67
2022/11/21 02:55:59;;;;;;;3.20;1.83;;;8.20;99.90;;;;;;5009920;28;20210;-67
2022/11/21 02:58:24;;;;;;;2.70;1.63;;;8.10;99.90;;;;;;4947799;28;20203;-67
2022/11/21 03:00:50;;;;;;;5.83;2.10;;;8.10;99.90;;;;;;4943504;28;20219;-67
2022/11/21 03:03:16;;;;;;;3.30;1.60;;;8.10;99.90;;;;;;4943335;28;20270;-67
2022/11/21 03:05:42;;;;;;;2.90;2.17;;;8.10;99.90;;;;;;4945380;28;20310;-67
2022/11/21 03:08:07;;;;;;;2.37;1.90;;;8.10;99.90;;;;;;4944733;28;20591;-67
2022/11/21 03:10:33;;;;;;;4.80;1.57;;;8.10;99.90;;;;;;4946011;28;20821;-67
2022/11/21 03:13:01;;;;;;;2.80;1.67;;;8.10;99.90;;;;;;4947607;28;20755;-68
2022/11/21 03:15:32;;;;;;;2.70;1.60;;;8.10;99.90;;;;;;4946193;28;20256;-68
2022/11/21 03:18:01;;;;;;;2.83;1.50;;;8.10;99.90;;;;;;4948309;28;20443;-67
2022/11/21 03:20:27;;;;;;;2.50;1.40;;;8.20;99.90;;;;;;4941522;28;20481;-68
2022/11/21 03:22:53;;;;;;;2.33;1.67;;;8.20;99.90;;;;;;4947772;28;20431;-67
2022/11/21 03:25:19;;;;;;;2.77;1.60;;;8.20;99.90;;;;;;4943481;28;20474;-68
2022/11/21 03:27:44;;;;;;;2.50;1.40;;;8.20;99.90;;;;;;4950650;28;20225;-68
2022/11/21 03:30:11;;;;;;;2.23;1.47;;;8.20;99.90;;;;;;4944436;28;20755;-66
2022/11/21 03:32:36;;;;;;;2.60;1.50;;;8.20;99.90;;;;;;4941888;28;20552;-66
2022/11/21 03:35:02;;;;;;;2.70;1.43;;;8.20;99.90;;;;;;4945078;28;20431;-67
2022/11/21 03:37:27;;;;;;;4.63;2.00;;;8.30;99.90;;;;;;4946505;28;20201;-67
2022/11/21 03:39:53;;;;;;;4.10;1.40;;;8.20;99.90;;;;;;4943409;28;20302;-68
2022/11/21 03:42:18;;;;;;;2.77;1.73;;;8.30;99.90;;;;;;4943185;28;20216;-67
2022/11/21 03:44:44;;;;;;;6.73;2.10;;;8.30;99.90;;;;;;4943460;28;20191;-67
2022/11/21 03:47:09;;;;;;;4.93;1.60;;;8.40;99.90;;;;;;4946642;28;20194;-67
2022/11/21 03:49:35;;;;;;;2.97;1.90;;;8.30;99.90;;;;;;4943477;28;20191;-67
2022/11/21 03:52:00;;;;;;;2.80;2.17;;;8.30;99.90;;;;;;4947104;28;20207;-67
2022/11/21 03:54:26;;;;;;;7.03;1.73;;;8.30;99.90;;;;;;4944637;28;20191;-67
2022/11/21 03:56:51;;;;;;;5.83;1.80;;;8.40;99.90;;;;;;4949770;28;20200;-68
2022/11/21 03:59:17;;;;;;;4.33;2.07;;;8.30;99.90;;;;;;4942701;28;20191;-68
2022/11/21 04:01:43;;;;;;;3.57;1.67;;;8.40;99.90;;;;;;4943875;28;20277;-67
2022/11/21 04:04:08;;;;;;;3.57;2.47;;;8.30;99.90;;;;;;4943214;28;20283;-66
2022/11/21 04:06:34;;;;;;;8.50;1.97;;;8.40;99.90;;;;;;4942203;28;20284;-67
2022/11/21 04:08:59;;;;;;;5.13;1.90;;;8.40;99.90;;;;;;4951824;28;20228;-67
2022/11/21 04:11:25;;;;;;;5.70;2.13;;;8.40;99.90;;;;;;4944329;28;20269;-68
2022/11/21 04:13:53;;;;;;;4.70;1.80;;;8.30;99.90;;;;;;4942264;28;20279;-68
2022/11/21 04:16:19;;;;;;;4.17;2.03;;;8.30;99.90;;;;;;4942658;28;20191;-68
2022/11/21 04:18:45;;;;;;;3.30;1.50;;;8.30;99.90;;;;;;4943013;28;20450;-67
2022/11/21 04:21:10;;;;;;;3.90;2.43;;;8.20;99.90;;;;;;4943213;28;20243;-67
2022/11/21 04:23:36;;;;;;;2.63;1.60;;;8.20;99.90;;;;;;4942235;28;20184;-67
2022/11/21 04:26:02;;;;;;;5.70;2.10;;;8.20;99.90;;;;;;4960031;28;20218;-67
2022/11/21 04:28:28;;;;;;;3.63;2.00;;;8.20;99.90;;;;;;4952432;28;20202;-67
2022/11/21 04:30:53;;;;;;;6.10;1.93;;;8.20;99.90;;;;;;4943009;28;20795;-67
2022/11/21 04:33:19;;;;;;;5.63;1.80;;;8.20;99.90;;;;;;4942836;28;20268;-69
2022/11/21 04:35:45;;;;;;;4.90;1.90;;;8.20;99.90;;;;;;4946647;28;20190;-67
2022/11/21 04:38:12;;;;;;;3.33;1.90;;;8.20;99.90;;;;;;4944599;28;20192;-67
2022/11/21 04:40:38;;;;;;;4.53;1.97;;;8.20;99.90;;;;;;4945791;28;20958;-66
2022/11/21 04:43:03;;;;;;;3.50;1.80;;;8.20;99.90;;;;;;4942763;28;21026;-67
2022/11/21 04:45:29;;;;;;;3.80;1.70;;;8.20;99.90;;;;;;4940158;28;20212;-68
2022/11/21 04:47:55;;;;;;;5.07;1.97;;;8.30;99.90;;;;;;4943304;28;20195;-68
2022/11/21 04:50:22;;;;;;;3.50;1.60;;;8.20;99.90;;;;;;4940578;28;20240;-68
2022/11/21 04:52:55;;;;;;;4.20;2.10;;;8.20;99.90;;;;;;4941096;28;20195;-68
2022/11/21 04:55:24;;;;;;;3.20;1.60;;;8.30;99.90;;;;;;4944722;28;20483;-68
2022/11/21 04:57:50;;;;;;;14.10;2.60;;;8.20;99.90;;;;;;4944021;28;20457;-68
2022/11/21 05:00:16;;;;;;;8.03;2.10;;;8.20;99.90;;;;;;4942079;28;20427;-68
2022/11/21 05:02:42;;;;;;;2.43;1.67;;;8.20;99.90;;;;;;5006861;28;20337;-68
2022/11/21 05:05:08;;;;;;;4.37;1.90;;;8.20;99.90;;;;;;4941299;28;20851;-67
2022/11/21 05:07:34;;;;;;;1.90;1.60;;;8.10;99.90;;;;;;5005072;28;20991;-67
2022/11/21 05:10:00;;;;;;;3.50;1.77;;;8.10;99.90;;;;;;4946436;28;20237;-67
2022/11/21 05:15:09;;;;;;;4.57;2.20;;;8.10;99.90;;;;;;4942899;28;20195;-68
2022/11/21 05:17:35;;;;;;;7.63;1.90;;;8.20;99.90;;;;;;4947531;28;20482;-67
2022/11/21 05:20:01;;;;;;;5.00;1.70;;;8.20;99.90;;;;;;4942488;28;20195;-67
2022/11/21 05:22:27;;;;;;;5.40;2.27;;;8.20;99.90;;;;;;4944474;28;20246;-67
2022/11/21 05:24:52;;;;;;;5.80;2.23;;;8.20;99.90;;;;;;4944092;28;20550;-68
2022/11/21 05:27:18;;;;;;;3.03;2.37;;;8.20;99.90;;;;;;4948849;28;20195;-68
2022/11/21 05:29:43;;;;;;;6.23;1.80;;;8.20;99.90;;;;;;4995187;28;20201;-66
2022/11/21 05:32:09;;;;;;;4.60;2.03;;;8.20;99.90;;;;;;4945541;28;20211;-66
2022/11/21 05:34:34;;;;;;;2.63;1.70;;;8.30;99.90;;;;;;4949790;28;20195;-66
2022/11/21 05:37:00;;;;;;;2.37;1.70;;;8.30;99.90;;;;;;4952384;28;20198;-67
2022/11/21 05:39:26;;;;;;;2.20;1.80;;;8.20;99.90;;;;;;5011637;28;20286;-67
2022/11/21 05:41:52;;;;;;;3.90;1.87;;;8.20;99.90;;;;;;4958063;28;20483;-68
2022/11/21 05:44:18;;;;;;;3.53;1.83;;;8.30;99.90;;;;;;4944984;28;20641;-68
2022/11/21 05:46:43;;;;;;;3.47;1.70;;;8.30;99.90;;;;;;4945933;28;20273;-68
2022/11/21 05:49:10;;;;;;;4.53;2.33;;;8.30;99.90;;;;;;4946610;28;20435;-68
2022/11/21 05:51:35;;;;;;;4.40;2.23;;;8.30;99.90;;;;;;4943423;28;20242;-68
2022/11/21 05:54:01;;;;;;;4.07;1.90;;;8.30;99.90;;;;;;4944594;28;20459;-68
2022/11/21 05:56:26;;;;;;;3.83;1.90;;;8.30;99.90;;;;;;4945843;28;20195;-68
2022/11/21 05:58:55;;;;;;;6.70;2.20;;;8.20;99.90;;;;;;4947388;28;20203;-68
2022/11/21 06:04:06;;;;;;;4.60;2.07;;;8.00;99.90;;;;;;4950376;28;20509;-68
2022/11/21 06:06:32;;;;;;;5.60;2.40;;;8.00;99.90;;;;;;4945636;28;20568;-68
2022/11/21 06:08:58;;;;;;;4.40;2.10;;;8.10;99.90;;;;;;4951729;28;21300;-67
2022/11/21 06:11:24;;;;;;;7.20;2.90;;;8.10;99.90;;;;;;4944645;28;20499;-68
2022/11/21 06:13:50;;;;;;;4.07;2.43;;;8.10;99.90;;;;;;4953748;28;20266;-68
2022/11/21 06:16:18;;;;;;;10.20;2.40;;;8.00;99.90;;;;;;4944822;28;20191;-68
2022/11/21 06:18:45;;;;;;;3.67;2.20;;;8.10;99.90;;;;;;4942957;28;20532;-68
2022/11/21 06:21:19;;;;;;;3.87;2.23;;;8.10;99.90;;;;;;4947267;28;20466;-68
2022/11/21 06:23:46;;;;;;;5.40;2.07;;;8.00;99.90;;;;;;4944024;28;20918;-67
2022/11/21 06:26:15;;;;;;;5.90;2.10;;;8.00;99.90;;;;;;4943648;28;20478;-68
2022/11/21 06:28:41;;;;;;;3.90;2.30;;;8.00;99.90;;;;;;4945654;28;20423;-67
2022/11/21 06:31:09;;;;;;;9.07;2.40;;;8.00;99.90;;;;;;4948283;28;21233;-68
2022/11/21 06:33:35;;;;;;;3.40;2.17;;;8.00;99.90;;;;;;4946087;28;20442;-69
2022/11/21 06:36:06;;;;;;;8.47;3.10;;;8.00;99.90;;;;;;4949339;28;20450;-68
2022/11/21 06:38:33;;;;;;;8.03;2.83;;;7.90;99.90;;;;;;4942052;28;20243;-67
2022/11/21 06:41:04;;;;;;;6.10;2.40;;;7.90;99.90;;;;;;4948679;28;20438;-68
2022/11/21 06:43:29;;;;;;;7.33;2.50;;;7.90;99.90;;;;;;4950839;28;20848;-69
2022/11/21 06:45:55;;;;;;;10.13;2.90;;;7.90;99.90;;;;;;4941388;28;20470;-68
2022/11/21 06:48:21;;;;;;;6.43;3.00;;;7.90;99.90;;;;;;4944598;28;20191;-67
2022/11/21 06:50:47;;;;;;;7.43;3.20;;;8.00;99.90;;;;;;4944148;28;20496;-67
2022/11/21 06:53:12;;;;;;;5.50;2.37;;;8.00;99.90;;;;;;4947822;28;20264;-67
2022/11/21 06:55:38;;;;;;;7.53;2.53;;;8.00;99.90;;;;;;4946811;28;20183;-67
2022/11/21 06:58:03;;;;;;;9.20;2.87;;;8.00;99.90;;;;;;4951002;28;20195;-68
2022/11/21 07:00:29;;;;;;;8.63;2.77;;;8.10;99.90;;;;;;4952426;28;20223;-69
2022/11/21 07:02:59;;;;;;;5.70;2.37;;;8.20;99.90;;;;;;4955947;28;20187;-68
2022/11/21 07:05:25;;;;;;;9.20;3.47;;;8.10;99.90;;;;;;4943311;28;20231;-68
2022/11/21 07:07:50;;;;;;;8.17;3.27;;;8.10;99.90;;;;;;4960670;28;20482;-69
2022/11/21 07:10:16;;;;;;;5.83;2.30;;;8.20;99.90;;;;;;4945933;28;20179;-67
2022/11/21 07:15:26;;;;;;;5.23;2.20;;;8.20;99.90;;;;;;4946548;28;20296;-68
2022/11/21 07:17:52;;;;;;;6.97;2.50;;;8.10;99.90;;;;;;5014782;28;20439;-69
2022/11/21 07:20:17;;;;;;;6.90;2.67;;;8.20;99.90;;;;;;4947850;28;20474;-69
2022/11/21 07:22:43;;;;;;;5.77;2.77;;;8.20;99.90;;;;;;4943671;28;20192;-68
2022/11/21 07:25:09;;;;;;;9.23;2.70;;;8.20;99.90;;;;;;4950602;28;20215;-68
2022/11/21 07:27:34;;;;;;;10.10;2.80;;;8.20;99.90;;;;;;5022625;28;20450;-68
2022/11/21 07:30:00;;;;;;;4.90;2.23;;;8.20;99.90;;;;;;4952759;28;20274;-69
2022/11/21 07:32:26;;;;;;;3.30;2.40;;;8.20;99.90;;;;;;4944057;28;20227;-67
2022/11/21 07:34:52;;;;;;;8.67;3.23;;;8.20;99.90;;;;;;4958128;28;20184;-69
2022/11/21 07:37:17;;;;;;;10.03;2.90;;;8.20;99.90;;;;;;4953079;28;20938;-68
2022/11/21 07:39:43;;;;;;;6.27;2.53;;;8.20;99.90;;;;;;4950315;28;20191;-68
2022/11/21 07:42:08;;;;;;;8.63;2.90;;;8.20;99.90;;;;;;4949574;28;20294;-69
2022/11/21 07:44:34;;;;;;;7.07;2.20;;;8.20;99.90;;;;;;4946146;28;20329;-69
2022/11/21 07:46:59;;;;;;;6.07;2.97;;;8.20;99.90;;;;;;4951623;28;20262;-70
2022/11/21 07:49:25;;;;;;;6.87;2.73;;;8.30;99.90;;;;;;4943857;28;20206;-68
2022/11/21 07:51:51;;;;;;;5.50;2.53;;;8.30;99.90;;;;;;4945876;28;20204;-68
2022/11/21 07:54:16;;;;;;;6.20;2.60;;;8.20;99.90;;;;;;4948404;28;20190;-68
2022/11/21 07:56:42;;;;;;;8.27;3.10;;;8.30;99.90;;;;;;4946298;28;20974;-68
2022/11/21 07:59:07;;;;;;;13.20;3.40;;;8.30;99.90;;;;;;4945328;28;20214;-69
2022/11/21 08:01:33;;;;;;;6.90;2.70;;;8.40;99.90;;;;;;4943993;28;20261;-69
2022/11/21 08:03:58;;;;;;;8.27;2.90;;;8.40;99.90;;;;;;4942528;28;20191;-68
2022/11/21 08:06:24;;;;;;;4.57;2.80;;;8.50;99.90;;;;;;4942912;28;20673;-69
2022/11/21 08:08:53;;;;;;;6.03;3.00;;;8.40;99.90;;;;;;4942463;28;20294;-68
2022/11/21 08:11:18;;;;;;;5.80;2.80;;;8.40;99.90;;;;;;4943912;28;20325;-68
2022/11/21 08:13:44;;;;;;;8.13;3.93;;;8.40;99.90;;;;;;4945842;28;20439;-68
2022/11/21 08:16:09;;;;;;;4.77;2.73;;;8.50;99.90;;;;;;4947953;28;20187;-68
2022/11/21 08:18:35;;;;;;;9.53;3.77;;;8.60;99.90;;;;;;4947584;28;20645;-70
2022/11/21 08:21:02;;;;;;;5.13;2.50;;;8.50;99.90;;;;;;4954084;28;20499;-70
2022/11/21 08:23:28;;;;;;;4.13;2.60;;;8.60;99.90;;;;;;4937927;28;20471;-68
2022/11/21 08:25:53;;;;;;;6.87;2.57;;;8.60;99.90;;;;;;4942479;28;20474;-68
2022/11/21 08:28:19;;;;;;;6.50;2.70;;;8.50;99.90;;;;;;4943241;28;20678;-67
2022/11/21 08:30:44;;;;;;;7.57;2.60;;;8.50;99.90;;;;;;4951015;28;20623;-68
2022/11/21 08:33:10;;;;;;;8.53;2.53;;;8.50;99.90;;;;;;4942723;28;20180;-68
2022/11/21 08:35:37;;;;;;;5.73;2.83;;;8.40;99.90;;;;;;4948518;28;20282;-67
2022/11/21 08:38:03;;;;;;;8.30;3.40;;;8.40;99.90;;;;;;4946742;28;20191;-69
2022/11/21 08:40:30;;;;;;;9.20;3.57;;;8.50;99.90;;;;;;4945606;28;20946;-67
2022/11/21 08:43:01;;;;;;;6.10;3.10;;;8.60;99.90;;;;;;4942483;28;20437;-67
2022/11/21 08:45:27;;;;;;;4.00;2.80;;;8.60;99.90;;;;;;4948740;28;20478;-69
2022/11/21 08:47:53;;;;;;;7.67;2.80;;;8.60;99.90;;;;;;4941992;28;20447;-68
2022/11/21 08:50:19;;;;;;;8.80;2.70;;;8.60;99.90;;;;;;4951262;28;20477;-67
2022/11/21 08:52:44;;;;;;;5.97;2.37;;;8.60;99.90;;;;;;4942033;28;20942;-68
2022/11/21 08:55:10;;;;;;;6.17;2.40;;;8.70;99.90;;;;;;4944597;28;20176;-68
2022/11/21 08:57:39;;;;;;;8.30;2.67;;;8.70;99.90;;;;;;4945378;28;20197;-68
2022/11/21 09:00:07;;;;;;;6.97;4.37;;;8.70;99.90;;;;;;4947646;28;20274;-67
2022/11/21 09:02:32;;;;;;;4.07;2.10;;;8.60;99.90;;;;;;5002625;28;20446;-67
2022/11/21 09:04:58;;;;;;;6.43;3.07;;;8.70;99.90;;;;;;4947721;28;20419;-67
2022/11/21 09:07:24;;;;;;;4.47;2.00;;;8.60;99.90;;;;;;4949494;28;20261;-67
2022/11/21 09:09:50;;;;;;;4.07;2.37;;;8.60;99.90;;;;;;4948939;28;20786;-67
2022/11/21 09:12:15;;;;;;;4.07;1.80;;;8.50;99.90;;;;;;4948853;28;20398;-69
2022/11/21 09:20:09;;;;;;;5.10;1.60;;;8.50;99.90;;;;;;4948012;28;20453;-68
2022/11/21 09:22:35;;;;;;;4.43;2.10;;;8.60;99.90;;;;;;4953356;28;20777;-68
2022/11/21 09:25:01;;;;;;;7.73;2.27;;;8.60;99.90;;;;;;4948066;28;20187;-68
2022/11/21 09:27:26;;;;;;;4.33;2.10;;;8.60;99.90;;;;;;4953916;28;20202;-68
2022/11/21 09:29:52;;;;;;;4.10;2.10;;;8.60;99.90;;;;;;4947993;28;20175;-69
2022/11/21 09:32:18;;;;;;;9.00;2.63;;;8.60;99.90;;;;;;4946645;28;20596;-68
2022/11/21 09:34:43;;;;;;;6.33;2.40;;;8.60;99.90;;;;;;4941641;28;20618;-68
2022/11/21 09:37:09;;;;;;;8.03;1.87;;;8.60;99.90;;;;;;4944468;28;20249;-67
2022/11/21 09:39:35;;;;;;;6.43;1.67;;;8.70;99.90;;;;;;4938191;28;20207;-67
2022/11/21 09:42:34;;;;;;;6.27;2.93;;;8.70;99.90;;;;;;5008053;28;20203;-68
2022/11/21 09:45:24;;;;;;;5.27;2.00;;;8.70;99.90;;;;;;4943945;28;20852;-66
2022/11/21 09:47:51;;;;;;;4.37;2.13;;;8.70;99.90;;;;;;4947214;28;20785;-68
2022/11/21 09:50:24;;;;;;;4.13;1.83;;;8.70;99.90;;;;;;5023318;28;21017;-68
2022/11/21 09:53:03;;;;;;;5.10;2.10;;;8.70;99.90;;;;;;4941362;28;20439;-68
2022/11/21 09:55:45;;;;;;;7.03;2.07;;;8.70;99.90;;;;;;4941911;28;20437;-68
2022/11/21 09:58:27;;;;;;;4.00;1.70;;;8.60;99.90;;;;;;4944020;28;20441;-69
2022/11/21 10:00:53;;;;;;;7.03;1.97;;;8.70;99.90;;;;;;4942996;28;20496;-69
2022/11/21 10:03:23;;;;;;;2.87;1.60;;;8.80;99.90;;;;;;4950145;28;20446;-69
2022/11/21 10:06:03;;;;;;;9.20;2.23;;;8.80;99.90;;;;;;4941575;28;20466;-69
2022/11/21 10:08:54;;;;;;;4.03;1.90;;;9.00;99.90;;;;;;4944609;28;20461;-68
2022/11/21 10:15:02;;;;;;;5.67;2.30;;;9.10;99.90;;;;;;4956853;28;20442;-69
2022/11/21 10:17:54;;;;;;;6.77;2.20;;;9.10;99.90;;;;;;4949271;28;20442;-69
2022/11/21 10:20:43;;;;;;;4.40;2.17;;;9.30;99.90;;;;;;4942288;28;20801;-67
2022/11/21 10:23:47;;;;;;;3.67;2.00;;;9.40;99.90;;;;;;4945795;28;20439;-68
2022/11/21 10:26:20;;;;;;;4.77;2.13;;;9.50;99.90;;;;;;4957473;28;20480;-68
2022/11/21 10:28:45;;;;;;;7.90;2.90;;;9.60;99.90;;;;;;4953122;28;20590;-67
2022/11/21 10:31:13;;;;;;;7.43;3.07;;;9.70;99.90;;;;;;4944614;28;20467;-68
2022/11/21 10:33:39;;;;;;;7.30;2.77;;;9.70;99.90;;;;;;4950926;28;20195;-68
2022/11/21 10:36:13;;;;;;;10.93;3.37;;;9.60;99.90;;;;;;4946416;28;20561;-68
2022/11/21 10:38:41;;;;;;;5.33;2.73;;;9.60;99.90;;;;;;4946275;28;20422;-68
2022/11/21 10:41:24;;;;;;;7.37;2.30;;;9.60;99.90;;;;;;4948902;28;20504;-68
2022/11/21 10:46:55;;;;;;;5.60;2.37;;;9.90;99.90;;;;;;4952316;28;20484;-69
2022/11/21 10:49:21;;;;;;;15.07;3.17;;;10.00;99.90;;;;;;4946173;28;20488;-68
2022/11/21 10:52:05;;;;;;;5.67;2.30;;;9.90;99.90;;;;;;4944154;28;20457;-68
2022/11/21 10:54:34;;;;;;;6.40;2.23;;;10.00;99.90;;;;;;4945614;28;20435;-68
2022/11/21 10:57:28;;;;;;;9.83;3.23;;;10.00;99.90;;;;;;4943765;28;20451;-68
2022/11/21 11:00:14;;;;;;;8.23;2.30;;;9.90;99.90;;;;;;4947503;28;21229;-69
2022/11/21 11:02:59;;;;;;;8.07;2.80;;;10.10;99.90;;;;;;4946310;28;20458;-68
2022/11/21 11:05:33;;;;;;;5.73;2.47;;;10.10;99.90;;;;;;5007454;28;20476;-67
2022/11/21 11:08:26;;;;;;;8.50;2.57;;;10.10;99.90;;;;;;5002498;28;20490;-67
2022/11/21 11:11:13;;;;;;;4.07;2.70;;;10.30;99.90;;;;;;4947427;28;20974;-69
2022/11/21 11:14:12;;;;;;;12.53;2.60;;;10.30;99.90;;;;;;4943056;28;21197;-67
2022/11/21 11:16:46;;;;;;;7.23;2.33;;;10.30;99.90;;;;;;4955227;28;20443;-69
2022/11/21 11:19:19;;;;;;;10.70;2.60;;;10.30;99.90;;;;;;4951045;28;20431;-68
2022/11/21 11:21:46;;;;;;;5.00;2.37;;;10.30;99.90;;;;;;5019705;28;20538;-67
2022/11/21 11:24:11;;;;;;;11.10;2.80;;;10.40;99.90;;;;;;4951070;28;20453;-67
2022/11/21 11:26:46;;;;;;;13.87;3.90;;;10.50;99.90;;;;;;4944360;28;20466;-69
2022/11/21 11:29:21;;;;;;;8.33;2.30;;;10.50;99.90;;;;;;4953453;28;20210;-69
2022/11/21 11:32:00;;;;;;;4.90;2.47;;;10.70;99.90;;;;;;4943648;28;20587;-69
2022/11/21 11:34:36;;;;;;;7.40;2.50;;;10.80;99.90;;;;;;4950385;28;20927;-68
2022/11/21 11:37:26;;;;;;;7.97;3.20;;;10.80;99.90;;;;;;4938356;28;20460;-67
2022/11/21 11:40:00;;;;;;;6.80;2.90;;;10.90;99.90;;;;;;4945985;28;20998;-67
2022/11/21 11:48:00;;;;;;;5.73;2.40;;;11.10;99.90;;;;;;4946074;28;20489;-68
2022/11/21 11:50:52;;;;;;;6.77;3.30;;;11.20;99.90;;;;;;4948907;28;20435;-69
2022/11/21 11:53:21;;;;;;;4.40;2.40;;;11.20;99.90;;;;;;4948078;28;21061;-68
2022/11/21 11:56:15;;;;;;;7.33;3.43;;;11.30;99.90;;;;;;4942567;28;20458;-69
2022/11/21 11:58:46;;;;;;;9.97;2.53;;;11.40;99.90;;;;;;4960695;28;20453;-68
2022/11/21 12:01:15;;;;;;;7.30;3.17;;;11.40;99.90;;;;;;4944823;28;20471;-69
2022/11/21 12:04:12;;;;;;;4.83;2.20;;;11.40;99.90;;;;;;4958762;28;20994;-68
2022/11/21 12:06:51;;;;;;;6.80;2.80;;;11.40;99.90;;;;;;4953688;28;20891;-66
2022/11/21 12:09:25;;;;;;;10.17;3.17;;;11.50;99.90;;;;;;4955994;28;20470;-68
2022/11/21 12:12:07;;;;;;;6.67;3.97;;;12.30;99.90;;;;;;4953081;28;20470;-69
2022/11/21 12:18:18;;;;;;;8.07;3.80;;;14.50;99.90;;;;;;4941089;28;20461;-68
2022/11/21 12:21:12;;;;;;;4.10;2.53;;;15.60;99.90;;;;;;4942406;28;21001;-70
2022/11/21 12:23:52;;;;;;;6.57;3.10;;;16.20;99.90;;;;;;4940850;28;20864;-68
2022/11/21 12:26:29;;;;;;;8.30;3.37;;;16.40;99.90;;;;;;4951864;28;20520;-68
2022/11/21 12:29:33;;;;;;;7.27;3.00;;;16.40;99.90;;;;;;4945735;28;20419;-68
2022/11/21 12:32:29;;;;;;;5.47;3.10;;;16.60;99.90;;;;;;4942459;28;20865;-68
2022/11/21 12:35:21;;;;;;;5.60;2.93;;;17.00;99.90;;;;;;4947505;28;20421;-69
2022/11/21 12:38:13;;;;;;;8.37;3.63;;;16.80;99.90;;;;;;4941964;28;20430;-68
2022/11/21 12:40:55;;;;;;;6.23;3.00;;;16.70;99.90;;;;;;5014657;28;20457;-68
2022/11/21 12:44:02;;;;;;;5.70;2.90;;;16.40;99.90;;;;;;5026415;28;20426;-69
2022/11/21 12:46:46;;;;;;;8.40;3.33;;;16.20;99.90;;;;;;4899448;28;20501;-67
2022/11/21 12:55:38;;;;;;;4.73;2.77;;;15.00;99.90;;;;;;4943416;28;20488;-67
2022/11/21 12:58:07;;;;;;;7.23;2.73;;;14.60;99.90;;;;;;4944900;28;20427;-66
2022/11/21 13:00:56;;;;;;;6.00;2.40;;;14.20;99.90;;;;;;4941707;28;20466;-67
2022/11/21 13:03:22;;;;;;;6.43;2.47;;;14.20;99.90;;;;;;4945417;28;20872;-67
2022/11/21 13:05:50;;;;;;;5.53;2.40;;;14.00;99.90;;;;;;4943321;28;20513;-67
2022/11/21 13:08:24;;;;;;;8.20;2.60;;;14.00;99.90;;;;;;4948881;28;20186;-67
2022/11/21 13:11:57;;;;;;;9.10;3.33;;;13.90;99.90;;;;;;4944027;28;20481;-67
2022/11/21 13:13:43;;;;;;;12.80;4.10;;;13.90;99.90;;;;;;4940065;28;20434;-68
2022/11/21 13:16:38;;;;;;;8.00;2.80;;;14.10;99.90;;;;;;4944805;28;20489;-66
2022/11/21 13:19:49;;;;;;;6.10;3.47;;;14.40;99.90;;;;;;4939329;28;20883;-67
2022/11/21 13:22:33;;;;;;;8.07;3.63;;;14.30;99.90;;;;;;4951266;28;20486;-67
2022/11/21 13:25:01;;;;;;;9.60;3.13;;;14.00;99.90;;;;;;4942399;28;20438;-68
2022/11/21 13:27:30;;;;;;;13.30;2.50;;;13.80;99.90;;;;;;4943163;28;20506;-67
2022/11/21 13:30:10;;;;;;;6.97;2.90;;;13.60;99.90;;;;;;4944219;28;20423;-68
2022/11/21 13:32:47;;;;;;;6.10;2.87;;;13.40;99.90;;;;;;4946917;28;21009;-68
2022/11/21 13:35:19;;;;;;;6.20;2.47;;;13.40;99.90;;;;;;4947847;28;20426;-67
2022/11/21 13:38:04;;;;;;;10.90;3.90;;;13.20;99.90;;;;;;4944508;28;20420;-67
2022/11/21 13:40:29;;;;;;;6.70;2.50;;;13.10;99.90;;;;;;4943883;28;21013;-66
2022/11/21 13:43:24;;;;;;;5.50;2.80;;;13.10;99.90;;;;;;4942741;28;20422;-67
2022/11/21 13:45:52;;;;;;;7.40;2.50;;;13.00;99.90;;;;;;4941151;28;20635;-66
2022/11/21 13:48:37;;;;;;;8.53;2.83;;;12.90;99.90;;;;;;4949442;28;20429;-67